Time;durP1;ratioP1;P1;durP2;ratioP2;P2;SDS_P1;SDS_P2;PMS_P1;PMS_P2;Temp;Humidity;BMP_temperature;BMP_pressure;BME280_temperature;BME280_humidity;BME280_pressure;Samples;Min_cycle;Max_cycle;Signal;HPM_P1;HPM_P2
2023/05/01 00:05:01;;;;;;;17.55;10.27;;;;;;;4.52;61.23;100716.88;31108917;28;97386;-62
2023/05/01 00:20:03;;;;;;;17.45;10.85;;;;;;;4.47;61.47;100715.56;31106088;28;97594;-61
2023/05/01 00:35:04;;;;;;;21.27;10.55;;;;;;;4.33;62.18;100699.00;31105637;28;98364;-61
2023/05/01 00:50:05;;;;;;;18.58;10.35;;;;;;;4.20;62.63;100692.97;31103338;28;96682;-60
2023/05/01 01:05:06;;;;;;;23.35;12.35;;;;;;;4.09;62.99;100685.03;31103136;28;96684;-60
2023/05/01 01:20:29;;;;;;;19.50;11.85;;;;;;;3.91;63.62;100688.09;31101155;28;96762;-60
2023/05/01 01:35:30;;;;;;;19.75;10.93;;;;;;;3.77;64.44;100677.75;31115464;28;96860;-60
2023/05/01 01:50:33;;;;;;;21.13;11.85;;;;;;;3.58;64.95;100673.81;31103264;28;96782;-60
2023/05/01 02:05:35;;;;;;;19.77;11.43;;;;;;;3.34;65.09;100674.69;31119349;28;96781;-60
2023/05/01 02:20:36;;;;;;;20.13;10.95;;;;;;;3.17;65.55;100656.63;31118153;28;96724;-60
2023/05/01 02:35:46;;;;;;;29.30;12.75;;;;;;;2.99;66.20;100646.50;31117613;28;96750;-60
2023/05/01 02:50:48;;;;;;;19.52;10.35;;;;;;;2.82;66.86;100641.56;31114142;28;97018;-60
2023/05/01 03:05:50;;;;;;;23.65;11.18;;;;;;;2.66;67.28;100642.66;31111273;28;97370;-60
2023/05/01 03:20:55;;;;;;;25.52;12.18;;;;;;;2.51;67.47;100641.94;31110748;28;96835;-60
2023/05/01 03:36:02;;;;;;;19.25;11.45;;;;;;;2.32;68.31;100623.13;31111093;28;97582;-60
2023/05/01 03:51:03;;;;;;;20.65;11.23;;;;;;;2.39;68.59;100632.25;31107342;28;96794;-60
2023/05/01 04:06:03;;;;;;;20.73;11.95;;;;;;;2.56;69.23;100625.84;31106287;28;97418;-61
2023/05/01 04:21:04;;;;;;;23.42;13.90;;;;;;;2.86;69.66;100617.56;31104918;28;96743;-60
2023/05/01 04:36:04;;;;;;;20.70;12.30;;;;;;;3.22;69.61;100620.28;31104363;28;96660;-60
2023/05/01 04:51:04;;;;;;;21.67;11.85;;;;;;;3.80;69.74;100620.38;31083736;28;97192;-61
2023/05/01 05:06:05;;;;;;;20.20;11.27;;;;;;;4.49;69.68;100621.31;31099611;28;97616;-61
2023/05/01 05:21:05;;;;;;;14.27;9.65;;;;;;;5.28;69.06;100622.97;31099935;28;97488;-61
2023/05/01 05:36:06;;;;;;;16.90;9.93;;;;;;;6.19;68.39;100599.56;31097981;28;96753;-61
2023/05/01 05:51:06;;;;;;;17.30;10.32;;;;;;;7.15;67.19;100599.16;31097584;28;97564;-62
2023/05/01 06:06:07;;;;;;;13.80;8.23;;;;;;;8.31;66.04;100607.97;30969265;28;104453;-63
2023/05/01 06:21:07;;;;;;;15.88;7.03;;;;;;;9.41;63.79;100600.91;30981674;28;97139;-63
2023/05/01 06:36:07;;;;;;;10.65;7.20;;;;;;;10.45;61.18;100591.31;30987575;28;97172;-63
2023/05/01 06:51:07;;;;;;;14.30;5.63;;;;;;;11.06;56.57;100582.34;30986853;28;96703;-64
2023/05/01 07:06:08;;;;;;;10.18;5.93;;;;;;;11.46;52.04;100568.22;30986351;28;96802;-66
2023/05/01 07:21:11;;;;;;;9.38;4.88;;;;;;;11.71;50.17;100557.53;30984370;28;104401;-65
2023/05/01 07:36:12;;;;;;;7.47;4.73;;;;;;;11.89;47.87;100559.19;30981839;28;97664;-62
2023/05/01 07:51:13;;;;;;;6.27;4.10;;;;;;;12.46;45.14;100543.00;30964090;28;97583;-66
2023/05/01 08:06:14;;;;;;;7.68;3.35;;;;;;;13.42;42.20;100550.75;30979992;28;97231;-64
2023/05/01 08:21:14;;;;;;;5.93;3.40;;;;;;;13.83;39.25;100539.72;30978749;28;96999;-64
2023/05/01 08:36:14;;;;;;;8.38;3.90;;;;;;;14.77;37.98;100530.22;30975447;28;106057;-66
2023/05/01 08:51:18;;;;;;;9.32;3.90;;;;;;;15.48;35.10;100505.28;30975772;28;97048;-64
2023/05/01 09:06:20;;;;;;;7.93;3.37;;;;;;;16.27;32.25;100497.09;30974920;28;97342;-62
2023/05/01 09:21:20;;;;;;;7.10;4.03;;;;;;;17.44;31.98;100468.13;30973268;28;97353;-61
2023/05/01 09:36:22;;;;;;;5.50;3.22;;;;;;;19.55;27.56;100464.78;30972573;28;110290;-64
2023/05/01 09:51:24;;;;;;;;;;;;;;;19.78;28.27;100453.31;30976772;28;97665;-64
2023/05/01 10:06:27;;;;;;;8.53;3.80;;;;;;;19.10;28.51;100451.47;30993151;28;97442;-63
2023/05/01 10:21:30;;;;;;;8.07;4.20;;;;;;;19.31;28.62;100403.50;30991523;28;96674;-64
2023/05/01 10:36:46;;;;;;;7.63;3.37;;;;;;;19.61;25.04;100412.56;30988999;28;96740;-60
2023/05/01 10:52:01;;;;;;;7.53;3.23;;;;;;;20.43;23.65;100395.09;30986048;28;96726;-64
2023/05/01 11:07:04;;;;;;;6.67;3.10;;;;;;;20.58;23.46;100375.72;30983439;28;97314;-64
2023/05/01 11:22:12;;;;;;;11.77;3.77;;;;;;;20.31;24.28;100356.34;30982933;28;97047;-63
2023/05/01 11:37:13;;;;;;;12.17;4.00;;;;;;;21.09;23.53;100321.16;30984595;28;97328;-63
2023/05/01 11:52:13;;;;;;;6.18;3.55;;;;;;;21.49;22.36;100279.75;30982584;28;97725;-62
2023/05/01 12:07:22;;;;;;;4.73;2.83;;;;;;;21.48;21.67;100267.25;30979095;28;117499;-63
2023/05/01 12:22:24;;;;;;;6.13;2.90;;;;;;;21.79;20.67;100254.31;30978638;28;97548;-64
2023/05/01 12:37:30;;;;;;;6.87;3.13;;;;;;;21.68;20.84;100225.38;30978470;28;97131;-62
2023/05/01 12:52:31;;;;;;;5.60;3.10;;;;;;;21.11;21.09;100214.22;30975988;28;96855;-65
2023/05/01 13:07:31;;;;;;;7.80;3.60;;;;;;;21.33;22.29;100175.66;30852398;28;96818;-66
2023/05/01 13:22:32;;;;;;;6.27;3.23;;;;;;;21.14;23.21;100156.06;30842400;28;97244;-62
2023/05/01 13:37:34;;;;;;;8.33;4.37;;;;;;;21.82;23.38;100144.56;30930304;28;96971;-63
2023/05/01 13:52:41;;;;;;;9.43;3.87;;;;;;;21.66;23.17;100128.03;31094932;28;97587;-63
2023/05/01 14:07:54;;;;;;;6.87;3.37;;;;;;;21.89;23.51;100102.63;31041780;28;97513;-64
2023/05/01 14:22:54;;;;;;;5.70;3.10;;;;;;;21.34;23.69;100081.63;30967339;28;98099;-64
2023/05/01 14:37:55;;;;;;;7.10;2.90;;;;;;;21.11;23.97;100050.91;30976159;28;103428;-65
2023/05/01 14:52:57;;;;;;;5.67;2.63;;;;;;;20.78;24.35;100039.75;30986563;28;98331;-64
2023/05/01 15:08:00;;;;;;;3.30;1.83;;;;;;;20.86;24.63;100025.03;30988260;28;97208;-64
2023/05/01 15:23:01;;;;;;;9.87;2.30;;;;;;;20.51;25.32;100011.59;30980347;28;96810;-64
2023/05/01 15:38:02;;;;;;;3.63;1.43;;;;;;;20.19;26.25;100009.31;30984115;28;115710;-64
2023/05/01 15:53:03;;;;;;;4.17;2.47;;;;;;;19.81;27.73;99984.47;30982007;28;96721;-65
2023/05/01 16:08:04;;;;;;;5.70;1.70;;;;;;;19.49;29.23;99976.69;30982070;28;96675;-65
2023/05/01 16:23:05;;;;;;;4.97;1.97;;;;;;;19.34;30.01;99966.34;30979328;28;97328;-60
2023/05/01 16:38:05;;;;;;;5.80;2.30;;;;;;;19.06;31.25;99958.91;30970119;28;97161;-61
2023/05/01 16:53:05;;;;;;;8.88;3.17;;;;;;;18.72;32.59;99959.38;30955414;28;98296;-62
2023/05/01 17:08:06;;;;;;;4.22;2.30;;;;;;;18.44;34.45;99954.59;30967175;28;96883;-61
2023/05/01 17:23:06;;;;;;;4.88;2.72;;;;;;;18.05;36.25;99944.06;30965566;28;96733;-61
2023/05/01 17:38:07;;;;;;;6.95;3.25;;;;;;;17.60;38.68;99949.69;30965520;28;111292;-60
2023/05/01 17:53:08;;;;;;;8.45;5.03;;;;;;;17.06;40.37;99941.28;30876648;28;97314;-61
2023/05/01 18:08:08;;;;;;;9.63;3.60;;;;;;;16.61;42.19;99941.34;30913984;28;96786;-63
2023/05/01 18:23:09;;;;;;;9.98;3.63;;;;;;;16.50;43.23;99949.06;31093032;28;96800;-62
2023/05/01 18:38:09;;;;;;;8.13;5.00;;;;;;;16.28;44.23;99955.78;30993319;28;111842;-62
2023/05/01 18:53:09;;;;;;;12.25;5.53;;;;;;;15.97;45.84;99960.03;30853593;28;96884;-61
2023/05/01 19:08:10;;;;;;;12.32;5.57;;;;;;;15.67;46.93;99965.84;30854756;28;97160;-68
2023/05/01 19:23:10;;;;;;;10.02;6.35;;;;;;;15.16;48.62;99970.00;30902192;28;97365;-69
2023/05/01 19:38:11;;;;;;;8.43;5.65;;;;;;;14.72;50.29;99964.16;30973685;28;96751;-68
2023/05/01 19:53:11;;;;;;;8.73;5.53;;;;;;;14.32;51.47;99966.72;30981462;28;97171;-65
2023/05/01 20:08:11;;;;;;;7.10;4.30;;;;;;;14.14;51.57;99962.72;30886286;28;108274;-66
2023/05/01 20:23:14;;;;;;;4.68;3.00;;;;;;;14.08;51.24;99962.69;30846734;28;97717;-71
2023/05/01 20:38:14;;;;;;;7.37;4.43;;;;;;;13.98;51.19;99963.06;30844417;28;97029;-66
2023/05/01 20:53:14;;;;;;;5.65;4.30;;;;;;;13.77;51.41;99967.47;30906466;28;113194;-66
2023/05/01 21:08:15;;;;;;;7.95;4.70;;;;;;;13.39;51.92;99965.16;31100413;28;96649;-66
2023/05/01 21:23:16;;;;;;;7.22;4.18;;;;;;;13.21;53.05;99969.09;31102249;28;96606;-66
2023/05/01 21:38:17;;;;;;;7.03;4.77;;;;;;;12.86;53.67;99960.97;31101304;28;97202;-66
2023/05/01 21:53:17;;;;;;;11.27;6.15;;;;;;;12.49;54.99;99965.53;31115549;28;97265;-66
2023/05/01 22:08:18;;;;;;;10.32;5.68;;;;;;;12.27;55.33;99961.97;31121122;28;96871;-67
2023/05/01 22:23:19;;;;;;;10.10;6.67;;;;;;;12.09;57.35;99964.22;31119074;28;97471;-65
2023/05/01 22:38:19;;;;;;;8.10;5.57;;;;;;;11.79;57.74;99943.66;31117480;28;114711;-65
2023/05/01 22:53:19;;;;;;;9.23;5.85;;;;;;;11.51;58.62;99936.28;31116059;28;97572;-66
2023/05/01 23:08:19;;;;;;;8.30;6.07;;;;;;;11.26;59.15;99941.03;31114768;28;107594;-61
2023/05/01 23:23:20;;;;;;;11.23;6.28;;;;;;;11.04;59.93;99944.56;31114337;28;96612;-66
2023/05/01 23:38:21;;;;;;;11.73;6.77;;;;;;;10.94;60.80;99934.16;31113223;28;97286;-66
2023/05/01 23:53:21;;;;;;;9.15;6.75;;;;;;;10.78;60.85;99935.91;31109731;28;112646;-65
